METAR Formatted Surface Weather Observation
Issued by NWS

Home | Current Version | Previous Version | Text Only | Print | Product List | Glossary On
Versions: 1 2 3 4 5 6 7 8 9 10 11 12 13 14 15 16 17 18 19 20 21 22 23 24 25 26 27
745
SAUS43 KMQT 240057
MTRP53
METAR KP53 240056Z AUTO 18009G18KT 22/18 A3001 RMK AO1 SLP160
T02220178



USA.gov is the U.S. government's official web portal to all federal, state and local government web resources and services.